Time;durP1;ratioP1;P1;durP2;ratioP2;P2;SDS_P1;SDS_P2;PMS_P1;PMS_P2;Temp;Humidity;BMP_temperature;BMP_pressure;BME280_temperature;BME280_humidity;BME280_pressure;Samples;Min_cycle;Max_cycle;Signal;HPM_P1;HPM_P2
2023/03/07 00:00:35;;;;;;;10.10;5.93;;;6.60;99.90;;;;;;7391745;19;20126;-76
2023/03/07 00:03:01;;;;;;;10.93;6.30;;;6.60;99.90;;;;;;7388674;19;20300;-75
2023/03/07 00:05:26;;;;;;;10.57;6.00;;;6.50;99.90;;;;;;7390693;19;20533;-75
2023/03/07 00:07:52;;;;;;;9.23;6.27;;;6.30;99.90;;;;;;7391961;19;20163;-76
2023/03/07 00:10:18;;;;;;;8.93;5.47;;;6.40;99.90;;;;;;7392440;19;20135;-76
2023/03/07 00:12:44;;;;;;;10.00;5.87;;;6.40;99.90;;;;;;7389761;19;20146;-76
2023/03/07 00:15:11;;;;;;;8.60;5.57;;;6.50;99.90;;;;;;7391073;19;20135;-77
2023/03/07 00:17:37;;;;;;;11.63;6.87;;;6.50;99.90;;;;;;7388370;19;20190;-76
2023/03/07 00:20:06;;;;;;;11.07;6.50;;;6.60;99.90;;;;;;7389046;19;20194;-77
2023/03/07 00:22:33;;;;;;;8.40;5.37;;;6.60;99.90;;;;;;7387441;19;20575;-76
2023/03/07 00:24:59;;;;;;;9.13;5.70;;;6.60;99.90;;;;;;7393116;19;20126;-76
2023/03/07 00:27:25;;;;;;;10.87;5.23;;;6.70;99.90;;;;;;7389389;19;20138;-76
2023/03/07 00:29:50;;;;;;;9.33;5.37;;;6.70;99.90;;;;;;7390439;19;20126;-76
2023/03/07 00:32:16;;;;;;;9.53;5.30;;;6.60;99.90;;;;;;7392923;19;20548;-76
2023/03/07 00:34:42;;;;;;;10.70;6.07;;;6.50;99.90;;;;;;7387009;19;20153;-77
2023/03/07 00:37:08;;;;;;;8.27;5.50;;;6.50;99.90;;;;;;7389458;19;20539;-75
2023/03/07 00:39:34;;;;;;;9.30;5.60;;;6.60;99.90;;;;;;7386864;19;20158;-75
2023/03/07 00:42:00;;;;;;;9.47;5.83;;;6.60;99.90;;;;;;7389070;19;20141;-76
2023/03/07 00:44:28;;;;;;;10.47;5.97;;;6.60;99.90;;;;;;7390335;19;20135;-76
2023/03/07 00:46:55;;;;;;;8.30;4.93;;;6.40;99.90;;;;;;7388988;19;20154;-74
2023/03/07 00:49:21;;;;;;;7.83;5.23;;;6.40;99.90;;;;;;7390151;19;20625;-76
2023/03/07 00:51:47;;;;;;;9.37;6.03;;;6.50;99.90;;;;;;7389370;19;20130;-76
2023/03/07 00:54:13;;;;;;;8.37;5.23;;;6.60;99.90;;;;;;7388636;19;20146;-75
2023/03/07 00:56:39;;;;;;;7.57;5.13;;;6.60;99.90;;;;;;7389199;19;20150;-77
2023/03/07 00:59:05;;;;;;;15.17;5.83;;;6.60;99.90;;;;;;7384038;19;20152;-76
2023/03/07 01:01:31;;;;;;;9.03;5.50;;;6.70;99.90;;;;;;7389018;19;20205;-77
2023/03/07 01:03:57;;;;;;;12.60;5.90;;;6.70;99.90;;;;;;7385914;19;20190;-76
2023/03/07 01:06:28;;;;;;;9.50;5.57;;;6.50;99.90;;;;;;7388003;19;20157;-76
2023/03/07 01:08:57;;;;;;;11.03;5.10;;;6.40;99.90;;;;;;7386849;19;20677;-75
2023/03/07 01:11:23;;;;;;;9.80;5.60;;;6.40;99.90;;;;;;7386779;19;20134;-76
2023/03/07 01:13:49;;;;;;;9.73;5.40;;;6.50;99.90;;;;;;7387315;19;20134;-76
2023/03/07 01:16:27;;;;;;;7.67;5.27;;;6.60;99.90;;;;;;7388044;19;20733;-76
2023/03/07 01:18:56;;;;;;;8.57;5.57;;;6.50;99.90;;;;;;7385567;19;20149;-75
2023/03/07 01:21:27;;;;;;;8.87;5.33;;;6.60;99.90;;;;;;7388779;19;20163;-76
2023/03/07 01:23:53;;;;;;;8.40;5.07;;;6.60;99.90;;;;;;7386213;19;20150;-76
2023/03/07 01:26:25;;;;;;;7.53;5.10;;;6.60;99.90;;;;;;7385956;19;20157;-76
2023/03/07 01:28:52;;;;;;;9.63;5.23;;;6.40;99.90;;;;;;7388432;19;20591;-76
2023/03/07 01:31:19;;;;;;;8.67;4.83;;;6.60;99.90;;;;;;7387047;19;20142;-76
2023/03/07 01:33:47;;;;;;;10.67;5.73;;;6.50;99.90;;;;;;7386037;19;20138;-76
2023/03/07 01:36:28;;;;;;;10.90;4.80;;;6.60;99.90;;;;;;7387523;19;20138;-76
2023/03/07 01:39:15;;;;;;;8.70;5.50;;;6.50;99.90;;;;;;7387650;19;20138;-75
2023/03/07 01:41:41;;;;;;;8.83;5.47;;;6.60;99.90;;;;;;7389318;19;20135;-76
2023/03/07 01:44:19;;;;;;;8.93;5.17;;;6.50;99.90;;;;;;7385861;19;20190;-76
2023/03/07 01:46:52;;;;;;;8.47;5.07;;;6.60;99.90;;;;;;7393073;19;20614;-77
2023/03/07 01:49:26;;;;;;;8.17;5.23;;;6.50;99.90;;;;;;7396021;19;20898;-76
2023/03/07 01:52:10;;;;;;;9.13;5.07;;;6.30;99.90;;;;;;7392602;19;20615;-76
2023/03/07 01:54:47;;;;;;;8.10;4.87;;;6.40;99.90;;;;;;7395316;19;20142;-76
2023/03/07 01:57:15;;;;;;;7.83;5.23;;;6.30;99.90;;;;;;7395346;19;20145;-76
2023/03/07 01:59:47;;;;;;;8.70;5.07;;;6.40;99.90;;;;;;7393459;19;20608;-75
2023/03/07 02:02:17;;;;;;;8.67;5.13;;;6.50;99.90;;;;;;7392298;19;20150;-76
2023/03/07 02:05:04;;;;;;;9.30;5.67;;;6.60;99.90;;;;;;7389339;19;20193;-76
2023/03/07 02:07:39;;;;;;;6.87;4.60;;;6.40;99.90;;;;;;7394289;19;20218;-76
2023/03/07 02:10:06;;;;;;;8.30;5.23;;;6.40;99.90;;;;;;7391884;19;20642;-76
2023/03/07 02:12:33;;;;;;;7.90;5.30;;;6.40;99.90;;;;;;7392513;19;20177;-77
2023/03/07 02:14:59;;;;;;;8.53;5.03;;;6.40;99.90;;;;;;7392366;19;20150;-75
2023/03/07 02:17:26;;;;;;;7.40;4.80;;;6.30;99.90;;;;;;7392862;19;20162;-76
2023/03/07 02:20:19;;;;;;;8.50;5.40;;;6.50;99.90;;;;;;7391709;19;20138;-76
2023/03/07 02:22:48;;;;;;;7.00;4.93;;;6.40;99.90;;;;;;7380713;19;20158;-76
2023/03/07 02:25:18;;;;;;;8.10;4.93;;;6.50;99.90;;;;;;7394597;19;20557;-76
2023/03/07 02:27:45;;;;;;;9.60;5.80;;;6.50;99.90;;;;;;7380455;19;20146;-76
2023/03/07 02:30:11;;;;;;;7.87;5.33;;;6.50;99.90;;;;;;7392355;19;20134;-75
2023/03/07 02:32:37;;;;;;;10.93;5.80;;;6.50;99.90;;;;;;7392411;19;20167;-76
2023/03/07 02:35:12;;;;;;;8.90;5.33;;;6.50;99.90;;;;;;7393706;19;20610;-76
2023/03/07 02:37:40;;;;;;;9.50;5.43;;;6.40;99.90;;;;;;7392899;19;20142;-76
2023/03/07 02:40:08;;;;;;;6.70;4.90;;;6.50;99.90;;;;;;7392820;19;20170;-76
2023/03/07 02:42:38;;;;;;;8.37;4.97;;;6.40;99.90;;;;;;7388242;19;20165;-76
2023/03/07 02:45:08;;;;;;;9.67;5.40;;;6.50;99.90;;;;;;7393055;19;20150;-76
2023/03/07 02:47:34;;;;;;;8.33;5.40;;;6.40;99.90;;;;;;7393721;19;20139;-76
2023/03/07 02:50:00;;;;;;;14.17;6.00;;;6.60;99.90;;;;;;7393999;19;20153;-76
2023/03/07 02:52:29;;;;;;;6.90;4.77;;;6.50;99.90;;;;;;7392267;19;20135;-76
2023/03/07 02:54:57;;;;;;;9.53;5.30;;;6.60;99.90;;;;;;7393909;19;20135;-77
2023/03/07 02:57:23;;;;;;;8.77;5.20;;;6.40;99.90;;;;;;7390385;19;20628;-76
2023/03/07 02:59:48;;;;;;;8.40;5.07;;;6.50;99.90;;;;;;7392155;19;20146;-76
2023/03/07 03:02:14;;;;;;;10.47;5.50;;;6.60;99.90;;;;;;7391134;19;20147;-75
2023/03/07 03:04:40;;;;;;;7.30;4.90;;;6.60;99.90;;;;;;7388854;19;20167;-76
2023/03/07 03:07:06;;;;;;;9.50;5.27;;;6.60;99.90;;;;;;7394014;19;20149;-76
2023/03/07 03:09:32;;;;;;;10.63;5.73;;;6.50;99.90;;;;;;7390487;19;20149;-76
2023/03/07 03:11:58;;;;;;;8.27;5.40;;;6.70;99.90;;;;;;7391917;19;20682;-75
2023/03/07 03:14:24;;;;;;;7.23;5.10;;;6.60;99.90;;;;;;7390627;19;20206;-76
2023/03/07 03:16:53;;;;;;;8.57;4.83;;;6.60;99.90;;;;;;7393237;19;20258;-75
2023/03/07 03:19:19;;;;;;;8.77;5.30;;;6.70;99.90;;;;;;7391589;19;20152;-76
2023/03/07 03:21:45;;;;;;;9.57;5.33;;;6.60;99.90;;;;;;7390228;19;20138;-76
2023/03/07 03:24:11;;;;;;;7.23;5.30;;;6.40;99.90;;;;;;7392916;19;20139;-76
2023/03/07 03:26:37;;;;;;;8.70;5.07;;;6.40;99.90;;;;;;7391837;19;20150;-76
2023/03/07 03:29:04;;;;;;;7.77;5.10;;;6.20;99.90;;;;;;7390132;19;20164;-77
2023/03/07 03:31:30;;;;;;;10.90;5.73;;;6.30;99.90;;;;;;7392658;19;20138;-76
2023/03/07 03:33:57;;;;;;;10.67;5.90;;;6.30;99.90;;;;;;7389773;19;20159;-77
2023/03/07 03:36:24;;;;;;;8.57;5.40;;;6.30;99.90;;;;;;7391003;19;20146;-75
2023/03/07 03:38:55;;;;;;;8.40;5.47;;;6.50;99.90;;;;;;7389453;19;20138;-75
2023/03/07 03:41:21;;;;;;;8.27;5.40;;;6.60;99.90;;;;;;7388872;19;20281;-75
2023/03/07 03:43:47;;;;;;;9.43;5.37;;;6.30;99.90;;;;;;7388472;19;20550;-76
2023/03/07 03:46:13;;;;;;;9.47;5.40;;;6.30;99.90;;;;;;7392073;19;20146;-76
2023/03/07 03:48:39;;;;;;;7.80;5.17;;;6.20;99.90;;;;;;7388528;19;20154;-76
2023/03/07 03:51:15;;;;;;;9.47;5.73;;;6.10;99.90;;;;;;7391893;19;20530;-77
2023/03/07 03:53:42;;;;;;;9.17;5.60;;;5.90;99.90;;;;;;7388821;19;20264;-76
2023/03/07 03:56:19;;;;;;;8.77;5.50;;;6.20;99.90;;;;;;7392306;19;20145;-77
2023/03/07 03:58:50;;;;;;;9.70;5.97;;;6.30;99.90;;;;;;7389674;19;20724;-76
2023/03/07 04:01:17;;;;;;;9.07;5.97;;;6.20;99.90;;;;;;7391786;19;20222;-76
2023/03/07 04:03:46;;;;;;;10.27;5.63;;;6.10;99.90;;;;;;7387912;19;20154;-76
2023/03/07 04:06:18;;;;;;;10.87;5.07;;;6.20;99.90;;;;;;7389360;19;20158;-76
2023/03/07 04:08:45;;;;;;;10.83;6.20;;;6.30;99.90;;;;;;7387217;19;20773;-75
2023/03/07 04:11:12;;;;;;;10.63;5.63;;;6.20;99.90;;;;;;7389892;19;20159;-76
2023/03/07 04:13:38;;;;;;;8.57;5.53;;;6.20;99.90;;;;;;7388946;19;20161;-75
2023/03/07 04:16:04;;;;;;;12.93;6.40;;;6.20;99.90;;;;;;7388813;19;20139;-76
2023/03/07 04:18:30;;;;;;;9.40;5.70;;;6.20;99.90;;;;;;7389031;19;20158;-76
2023/03/07 04:20:56;;;;;;;11.97;6.23;;;6.20;99.90;;;;;;7389483;19;20158;-76
2023/03/07 04:23:24;;;;;;;8.53;5.20;;;6.20;99.90;;;;;;7386012;19;20139;-76
2023/03/07 04:25:55;;;;;;;11.10;5.83;;;6.10;99.90;;;;;;7389008;19;20975;-75
2023/03/07 04:28:22;;;;;;;11.03;6.20;;;6.00;99.90;;;;;;7389051;19;20138;-76
2023/03/07 04:30:48;;;;;;;9.70;5.60;;;6.10;99.90;;;;;;7389018;19;20150;-76
2023/03/07 04:33:15;;;;;;;9.73;6.20;;;6.10;99.90;;;;;;7390873;19;20638;-76
2023/03/07 04:35:42;;;;;;;9.00;5.43;;;6.00;99.90;;;;;;7389291;19;20254;-76
2023/03/07 04:38:08;;;;;;;11.07;6.20;;;6.00;99.90;;;;;;7389990;19;20145;-76
2023/03/07 04:40:34;;;;;;;10.87;6.10;;;5.80;99.90;;;;;;7389643;19;20607;-77
2023/03/07 04:43:00;;;;;;;11.97;5.60;;;5.90;99.90;;;;;;7387196;19;20265;-76
2023/03/07 04:45:26;;;;;;;11.17;6.50;;;6.00;99.90;;;;;;7389242;19;20626;-76
2023/03/07 04:47:52;;;;;;;8.30;5.60;;;6.10;99.90;;;;;;7388526;19;20162;-76
2023/03/07 04:50:18;;;;;;;11.47;6.77;;;6.00;99.90;;;;;;7388361;19;20155;-75
2023/03/07 04:52:44;;;;;;;12.27;6.03;;;5.90;99.90;;;;;;7389675;19;20165;-75
2023/03/07 04:55:10;;;;;;;9.83;6.63;;;6.10;99.90;;;;;;7387193;19;20603;-77
2023/03/07 04:57:36;;;;;;;10.10;5.87;;;5.90;99.90;;;;;;7388624;19;20142;-76
2023/03/07 05:00:02;;;;;;;9.97;6.10;;;6.00;99.90;;;;;;7386645;19;20126;-76
2023/03/07 05:02:28;;;;;;;10.13;5.60;;;6.20;99.90;;;;;;7386412;19;20623;-76
2023/03/07 05:04:54;;;;;;;11.40;6.70;;;6.10;99.90;;;;;;7384626;19;20193;-76
2023/03/07 05:07:19;;;;;;;10.73;6.13;;;6.30;99.90;;;;;;7391563;19;20147;-75
2023/03/07 05:09:45;;;;;;;13.03;5.93;;;6.40;99.90;;;;;;7387484;19;20602;-75
2023/03/07 05:12:11;;;;;;;10.10;5.77;;;6.30;99.90;;;;;;7388704;19;20139;-76
2023/03/07 05:14:36;;;;;;;9.07;5.83;;;6.40;99.90;;;;;;7387842;19;20685;-76
2023/03/07 05:17:02;;;;;;;11.63;5.63;;;6.30;99.90;;;;;;7389293;19;20158;-77
2023/03/07 05:19:29;;;;;;;10.53;6.27;;;6.30;99.90;;;;;;7386064;19;20230;-75
2023/03/07 05:21:55;;;;;;;10.80;6.60;;;6.40;99.90;;;;;;7388849;19;20134;-76
2023/03/07 05:24:20;;;;;;;10.60;6.60;;;6.20;99.90;;;;;;7387441;19;20151;-76
2023/03/07 05:26:46;;;;;;;12.07;6.43;;;6.30;99.90;;;;;;7388175;19;20140;-76
2023/03/07 05:29:12;;;;;;;9.37;6.27;;;6.30;99.90;;;;;;7387337;19;20194;-76
2023/03/07 05:31:38;;;;;;;9.13;6.17;;;6.40;99.90;;;;;;7388025;19;20198;-76
2023/03/07 05:34:04;;;;;;;10.13;6.43;;;6.30;99.90;;;;;;7387293;19;20522;-76
2023/03/07 05:36:29;;;;;;;11.87;6.17;;;6.20;99.90;;;;;;7388804;19;20148;-77
2023/03/07 05:38:55;;;;;;;11.60;6.40;;;6.40;99.90;;;;;;7387531;19;20146;-76
2023/03/07 05:41:22;;;;;;;9.57;6.13;;;6.30;99.90;;;;;;7387199;19;20138;-75
2023/03/07 05:43:47;;;;;;;9.40;5.80;;;6.30;99.90;;;;;;7386378;19;20170;-75
2023/03/07 05:46:13;;;;;;;10.03;5.70;;;6.30;99.90;;;;;;7388951;19;20134;-76
2023/03/07 05:48:39;;;;;;;10.07;6.33;;;6.30;99.90;;;;;;7388260;19;20143;-76
2023/03/07 05:51:07;;;;;;;10.53;6.17;;;6.20;99.90;;;;;;7387403;19;20142;-77
2023/03/07 05:53:33;;;;;;;9.70;5.90;;;6.20;99.90;;;;;;7385774;19;20891;-77
2023/03/07 05:55:59;;;;;;;8.70;5.37;;;6.10;99.90;;;;;;7388597;19;20135;-76
2023/03/07 05:58:24;;;;;;;12.17;5.97;;;6.30;99.90;;;;;;7380748;19;20165;-77
2023/03/07 06:00:50;;;;;;;9.33;5.43;;;6.30;99.90;;;;;;7386365;19;20134;-75
2023/03/07 06:03:16;;;;;;;8.83;5.60;;;6.20;99.90;;;;;;7385700;19;20165;-76
2023/03/07 06:05:42;;;;;;;10.23;5.13;;;6.40;99.90;;;;;;7387900;19;20134;-76
2023/03/07 06:08:08;;;;;;;10.47;5.63;;;6.30;99.90;;;;;;7384545;19;20223;-75
2023/03/07 06:10:33;;;;;;;8.17;5.63;;;6.20;99.90;;;;;;7387118;19;20135;-76
2023/03/07 06:12:59;;;;;;;9.63;5.80;;;5.90;99.90;;;;;;7386184;19;20218;-76
2023/03/07 06:15:25;;;;;;;10.07;5.80;;;6.00;99.90;;;;;;7389456;19;20154;-76
2023/03/07 06:17:53;;;;;;;11.17;6.07;;;6.10;99.90;;;;;;7384680;19;20147;-76
2023/03/07 06:20:19;;;;;;;10.73;5.70;;;6.10;99.90;;;;;;7388572;19;20131;-75
2023/03/07 06:22:47;;;;;;;8.67;5.50;;;6.10;99.90;;;;;;7383020;19;20135;-76
2023/03/07 06:25:14;;;;;;;10.13;5.50;;;6.00;99.90;;;;;;7386795;19;20131;-76
2023/03/07 06:27:40;;;;;;;9.67;5.60;;;6.30;99.90;;;;;;7387684;19;20131;-76
2023/03/07 06:30:07;;;;;;;9.17;5.30;;;6.30;99.90;;;;;;7384823;19;20150;-76
2023/03/07 06:32:33;;;;;;;10.27;5.40;;;6.20;99.90;;;;;;7386202;19;20150;-77
2023/03/07 06:34:59;;;;;;;7.80;5.33;;;6.10;99.90;;;;;;7389831;19;20190;-78
2023/03/07 06:37:28;;;;;;;11.67;5.80;;;6.00;99.90;;;;;;7389383;19;20146;-77
2023/03/07 06:39:54;;;;;;;9.23;5.67;;;6.10;99.90;;;;;;7392097;19;20158;-78
2023/03/07 06:42:21;;;;;;;10.63;5.20;;;6.20;99.90;;;;;;7389247;19;20155;-78
2023/03/07 06:44:46;;;;;;;9.80;5.27;;;6.30;99.90;;;;;;7390510;19;20190;-80
2023/03/07 06:47:12;;;;;;;9.27;5.60;;;6.10;99.90;;;;;;7391111;19;20122;-80
2023/03/07 06:49:38;;;;;;;10.90;5.50;;;6.10;99.90;;;;;;7389321;19;20126;-79
2023/03/07 06:52:04;;;;;;;8.90;5.60;;;6.20;99.90;;;;;;7389177;19;20130;-80
2023/03/07 06:54:30;;;;;;;9.73;5.23;;;6.20;99.90;;;;;;7388347;19;20131;-78
2023/03/07 06:56:55;;;;;;;12.13;5.50;;;6.50;99.90;;;;;;7390368;19;20787;-80
2023/03/07 06:59:21;;;;;;;9.40;4.70;;;6.60;99.90;;;;;;7390234;19;20164;-79
2023/03/07 07:01:47;;;;;;;11.67;6.50;;;6.60;99.90;;;;;;7392192;19;20147;-78
2023/03/07 07:04:13;;;;;;;8.47;5.27;;;6.50;99.90;;;;;;7390437;19;20178;-78
2023/03/07 07:06:39;;;;;;;12.63;5.17;;;6.50;99.90;;;;;;7391480;19;20167;-79
2023/03/07 07:09:05;;;;;;;13.83;5.83;;;6.50;99.90;;;;;;7392301;19;20513;-81
2023/03/07 07:11:31;;;;;;;9.43;5.23;;;6.60;99.90;;;;;;7391393;19;20735;-79
2023/03/07 07:13:56;;;;;;;8.77;5.77;;;6.50;99.90;;;;;;7392151;19;20184;-81
2023/03/07 07:16:22;;;;;;;9.40;5.10;;;6.70;99.90;;;;;;7392556;19;20135;-77
2023/03/07 07:18:51;;;;;;;10.57;5.67;;;6.80;99.90;;;;;;7391945;19;20150;-80
2023/03/07 07:21:17;;;;;;;9.40;5.33;;;6.80;99.90;;;;;;7389251;19;20508;-79
2023/03/07 07:23:43;;;;;;;8.90;5.57;;;6.80;99.90;;;;;;7390810;19;20157;-80
2023/03/07 07:26:09;;;;;;;7.90;4.97;;;6.50;99.90;;;;;;7389865;19;20135;-78
2023/03/07 07:28:34;;;;;;;10.73;5.57;;;6.50;99.90;;;;;;7389196;19;20138;-77
2023/03/07 07:31:02;;;;;;;9.90;5.60;;;6.70;99.90;;;;;;7390060;19;20131;-77
2023/03/07 07:33:29;;;;;;;9.10;5.47;;;6.70;99.90;;;;;;7387322;19;20139;-78
2023/03/07 07:35:55;;;;;;;9.30;4.93;;;6.80;99.90;;;;;;7392712;19;20226;-77
2023/03/07 07:38:21;;;;;;;9.97;5.83;;;6.80;99.90;;;;;;7392044;19;20146;-78
2023/03/07 07:40:46;;;;;;;10.97;5.10;;;7.00;99.90;;;;;;7389055;19;20138;-79
2023/03/07 07:43:14;;;;;;;10.10;5.40;;;6.80;99.90;;;;;;7390712;19;20193;-78
2023/03/07 07:45:42;;;;;;;8.43;5.33;;;6.90;99.90;;;;;;7390286;19;20162;-77
2023/03/07 07:48:07;;;;;;;10.77;5.43;;;7.10;99.90;;;;;;7391920;19;20134;-78
2023/03/07 07:50:33;;;;;;;8.67;5.60;;;7.00;99.90;;;;;;7390254;19;20226;-78
2023/03/07 07:52:59;;;;;;;8.30;5.37;;;7.20;99.90;;;;;;7391205;19;20130;-78
2023/03/07 07:55:25;;;;;;;11.23;6.67;;;7.20;99.90;;;;;;7392370;19;20151;-78
2023/03/07 07:57:51;;;;;;;8.70;5.17;;;7.10;99.90;;;;;;7394704;19;20131;-77
2023/03/07 08:00:20;;;;;;;9.57;5.37;;;7.10;99.90;;;;;;7390196;19;20146;-78
2023/03/07 08:02:49;;;;;;;10.60;5.30;;;7.20;99.90;;;;;;7391153;19;20131;-77
2023/03/07 08:05:16;;;;;;;12.10;4.97;;;7.30;99.90;;;;;;7391749;19;20183;-78
2023/03/07 08:07:42;;;;;;;9.17;4.67;;;7.50;99.90;;;;;;7390664;19;20618;-78
2023/03/07 08:10:09;;;;;;;8.10;5.43;;;7.60;99.90;;;;;;7391919;19;20153;-78
2023/03/07 08:12:35;;;;;;;10.17;5.00;;;7.60;99.90;;;;;;7387881;19;20138;-78
2023/03/07 08:15:01;;;;;;;7.47;5.17;;;7.50;99.90;;;;;;7390291;19;20138;-78
2023/03/07 08:17:29;;;;;;;9.47;5.40;;;7.50;99.90;;;;;;7390095;19;20592;-78
2023/03/07 08:20:00;;;;;;;7.73;5.30;;;7.50;99.90;;;;;;7390833;19;20135;-78
2023/03/07 08:22:26;;;;;;;9.97;6.03;;;7.30;99.90;;;;;;7387361;19;20138;-77
2023/03/07 08:24:52;;;;;;;8.73;5.40;;;7.40;99.90;;;;;;7393722;19;20127;-78
2023/03/07 08:27:18;;;;;;;10.53;5.30;;;7.70;99.90;;;;;;7396495;19;20161;-76
2023/03/07 08:29:48;;;;;;;8.13;5.47;;;7.80;99.90;;;;;;7397668;19;20150;-76
2023/03/07 08:32:14;;;;;;;11.60;5.97;;;7.90;99.90;;;;;;7390878;19;20172;-78
2023/03/07 08:34:39;;;;;;;9.20;5.93;;;7.90;99.90;;;;;;7390020;19;20137;-77
2023/03/07 08:37:05;;;;;;;12.13;5.93;;;7.90;99.90;;;;;;7392989;19;20127;-77
2023/03/07 08:39:31;;;;;;;7.40;4.73;;;7.90;99.90;;;;;;7390124;19;20240;-78
2023/03/07 08:41:58;;;;;;;8.73;5.43;;;8.00;99.90;;;;;;7390148;19;20130;-77
2023/03/07 08:44:24;;;;;;;10.40;5.20;;;8.10;99.90;;;;;;7388570;19;20504;-80
2023/03/07 08:46:49;;;;;;;10.87;5.23;;;8.30;99.90;;;;;;7390045;19;20150;-78
2023/03/07 08:49:15;;;;;;;7.83;5.50;;;8.40;99.90;;;;;;7389990;19;20602;-78
2023/03/07 08:51:41;;;;;;;7.40;5.27;;;8.20;99.90;;;;;;7390402;19;20134;-77
2023/03/07 08:54:06;;;;;;;11.03;5.03;;;7.80;99.90;;;;;;7391550;19;20141;-77
2023/03/07 08:56:33;;;;;;;8.37;5.10;;;7.80;99.90;;;;;;7386923;19;20221;-77
2023/03/07 08:58:59;;;;;;;8.40;5.00;;;7.90;99.90;;;;;;7389172;19;20138;-77
2023/03/07 09:01:25;;;;;;;9.03;5.30;;;8.00;99.90;;;;;;7388023;19;20140;-77
2023/03/07 09:03:51;;;;;;;8.70;4.90;;;7.90;99.90;;;;;;7387953;19;20167;-77
2023/03/07 09:06:19;;;;;;;10.63;4.73;;;7.80;99.90;;;;;;7390648;19;20178;-78
2023/03/07 09:08:46;;;;;;;9.93;4.30;;;7.70;99.90;;;;;;7389103;19;20138;-78
2023/03/07 09:11:12;;;;;;;8.33;4.87;;;7.80;99.90;;;;;;7390624;19;20143;-77
2023/03/07 09:13:38;;;;;;;8.50;5.07;;;7.80;99.90;;;;;;7388401;19;20177;-77
2023/03/07 09:16:05;;;;;;;9.90;5.13;;;7.80;99.90;;;;;;7389803;19;20650;-77
2023/03/07 09:18:31;;;;;;;7.47;4.33;;;7.80;99.90;;;;;;7393215;19;20130;-77
2023/03/07 09:21:01;;;;;;;7.63;4.43;;;7.80;99.90;;;;;;7398393;19;20131;-79
2023/03/07 09:23:27;;;;;;;7.37;4.37;;;7.80;99.90;;;;;;7388984;19;20522;-77
2023/03/07 09:25:52;;;;;;;7.30;4.07;;;8.10;99.90;;;;;;7389019;19;20151;-76
2023/03/07 09:28:18;;;;;;;4.77;3.53;;;8.20;99.90;;;;;;7390291;19;20139;-76
2023/03/07 09:30:44;;;;;;;8.57;5.27;;;8.20;99.90;;;;;;7387588;19;20157;-77
2023/03/07 09:33:10;;;;;;;8.23;4.50;;;8.30;99.90;;;;;;7388961;19;20131;-76
2023/03/07 09:35:39;;;;;;;8.57;5.40;;;8.30;99.90;;;;;;7387540;19;20143;-77
2023/03/07 09:38:05;;;;;;;6.83;4.50;;;8.30;99.90;;;;;;7389148;19;20172;-78
2023/03/07 09:40:31;;;;;;;8.10;4.57;;;8.20;99.90;;;;;;7387572;19;20222;-77
2023/03/07 09:43:04;;;;;;;6.10;3.97;;;8.10;99.90;;;;;;7386864;19;20210;-77
2023/03/07 09:46:06;;;;;;;5.60;4.20;;;8.00;99.90;;;;;;7389833;19;20139;-77
2023/03/07 09:48:55;;;;;;;5.53;3.67;;;8.00;99.90;;;;;;7388315;19;20299;-77
2023/03/07 09:51:25;;;;;;;6.43;3.90;;;8.10;99.90;;;;;;7391590;19;20214;-77
2023/03/07 09:54:08;;;;;;;5.37;3.97;;;7.80;99.90;;;;;;7386492;19;20138;-76
2023/03/07 09:56:59;;;;;;;6.43;4.17;;;7.90;99.90;;;;;;7387252;19;20141;-77
2023/03/07 09:59:47;;;;;;;7.00;3.70;;;8.00;99.90;;;;;;7389451;19;20135;-80
2023/03/07 10:02:25;;;;;;;7.67;4.60;;;8.20;99.90;;;;;;7387246;19;20154;-77
2023/03/07 10:05:07;;;;;;;7.53;4.60;;;7.90;99.90;;;;;;7386761;19;20209;-78
2023/03/07 10:07:34;;;;;;;7.40;4.20;;;8.10;99.90;;;;;;7390502;19;20142;-77
2023/03/07 10:10:04;;;;;;;7.67;4.10;;;7.90;99.90;;;;;;7394592;19;20610;-77
2023/03/07 10:13:00;;;;;;;6.03;4.70;;;7.60;99.90;;;;;;7393071;19;20154;-77
2023/03/07 10:15:41;;;;;;;7.20;4.57;;;7.30;99.90;;;;;;7396590;19;20135;-77
2023/03/07 10:18:20;;;;;;;5.33;3.63;;;7.50;99.90;;;;;;7394594;19;20163;-78
2023/03/07 10:20:49;;;;;;;5.60;3.60;;;7.30;99.90;;;;;;7394290;19;20135;-75
2023/03/07 10:23:40;;;;;;;6.87;4.03;;;7.60;99.90;;;;;;7397068;19;20551;-76
2023/03/07 10:26:14;;;;;;;6.03;4.03;;;7.50;99.90;;;;;;7394778;19;20486;-77
2023/03/07 10:28:43;;;;;;;6.07;3.70;;;7.70;99.90;;;;;;7394676;19;20629;-77
2023/03/07 10:31:36;;;;;;;7.20;3.87;;;7.60;99.90;;;;;;7394884;19;20165;-77
2023/03/07 10:34:16;;;;;;;6.90;4.00;;;7.70;99.90;;;;;;7393788;19;20167;-76
2023/03/07 10:36:47;;;;;;;6.23;3.77;;;7.40;99.90;;;;;;7395000;19;20151;-76
2023/03/07 10:39:52;;;;;;;5.80;4.17;;;7.50;99.90;;;;;;7395133;19;20131;-77
2023/03/07 10:42:21;;;;;;;4.13;3.20;;;7.60;99.90;;;;;;7387214;19;20146;-76
2023/03/07 10:44:47;;;;;;;7.43;5.00;;;7.50;99.90;;;;;;7392816;19;20153;-77
2023/03/07 10:47:21;;;;;;;6.40;4.27;;;7.50;99.90;;;;;;7392815;19;20147;-77
2023/03/07 10:49:52;;;;;;;6.00;4.13;;;7.30;99.90;;;;;;7393259;19;20142;-77
2023/03/07 10:52:38;;;;;;;6.00;4.17;;;7.30;99.90;;;;;;7393528;19;20135;-77
2023/03/07 10:55:33;;;;;;;6.50;4.33;;;7.60;99.90;;;;;;7393614;19;20146;-76
2023/03/07 10:58:20;;;;;;;8.57;4.73;;;7.80;99.90;;;;;;7391010;19;20151;-77
2023/03/07 11:01:05;;;;;;;8.47;4.67;;;8.10;99.90;;;;;;7394181;19;20134;-75
2023/03/07 11:03:40;;;;;;;8.33;4.27;;;7.40;99.90;;;;;;7396713;19;20195;-77
2023/03/07 11:06:45;;;;;;;6.13;4.07;;;7.70;99.90;;;;;;7394480;19;20138;-76
2023/03/07 11:09:15;;;;;;;8.90;4.77;;;7.40;99.90;;;;;;7393113;19;20205;-77
2023/03/07 11:12:04;;;;;;;9.27;5.50;;;7.30;99.90;;;;;;7393874;19;20139;-77
2023/03/07 11:15:07;;;;;;;6.10;4.17;;;7.50;99.90;;;;;;7391430;19;20769;-77
2023/03/07 11:17:40;;;;;;;5.43;3.93;;;7.60;99.90;;;;;;7392132;19;20143;-77
2023/03/07 11:20:21;;;;;;;6.00;4.20;;;7.80;99.90;;;;;;7393409;19;20245;-75
2023/03/07 11:22:48;;;;;;;9.13;4.60;;;7.90;99.90;;;;;;7391219;19;20153;-77
2023/03/07 11:25:24;;;;;;;9.03;4.27;;;7.60;99.90;;;;;;7393398;19;20450;-76
2023/03/07 11:27:57;;;;;;;4.87;3.37;;;7.50;99.90;;;;;;7399081;19;20700;-76
2023/03/07 11:30:49;;;;;;;10.67;3.80;;;7.50;99.90;;;;;;7392300;19;20583;-75
2023/03/07 11:33:27;;;;;;;8.80;4.30;;;7.40;99.90;;;;;;7392634;19;20155;-76
2023/03/07 11:36:16;;;;;;;6.90;3.73;;;7.40;99.90;;;;;;7392562;19;20591;-76
2023/03/07 11:39:14;;;;;;;9.50;5.47;;;7.70;99.90;;;;;;7391882;19;20151;-77
2023/03/07 11:41:44;;;;;;;7.13;4.43;;;7.80;99.90;;;;;;7390552;19;20154;-77
2023/03/07 11:44:45;;;;;;;7.27;4.20;;;8.10;99.90;;;;;;7398838;19;20157;-77
2023/03/07 11:47:37;;;;;;;9.97;4.03;;;7.90;99.90;;;;;;7393336;19;20146;-77
2023/03/07 11:50:22;;;;;;;7.10;4.27;;;7.90;99.90;;;;;;7390024;19;20150;-76
2023/03/07 11:53:14;;;;;;;7.80;4.10;;;8.10;99.90;;;;;;7391967;19;20139;-76
2023/03/07 11:56:14;;;;;;;7.50;3.83;;;7.80;99.90;;;;;;7390948;19;20679;-77
2023/03/07 11:58:57;;;;;;;8.23;3.87;;;7.40;99.90;;;;;;7395968;19;20146;-77
2023/03/07 12:01:41;;;;;;;11.20;4.30;;;7.20;99.90;;;;;;7392986;19;20187;-77
2023/03/07 12:04:13;;;;;;;8.37;5.07;;;7.40;99.90;;;;;;7390518;19;20142;-77
2023/03/07 12:06:48;;;;;;;6.70;3.97;;;7.40;99.90;;;;;;7391336;19;20146;-77
2023/03/07 12:09:58;;;;;;;6.57;4.27;;;7.70;99.90;;;;;;7393957;19;20202;-77
2023/03/07 12:12:43;;;;;;;5.97;4.03;;;7.40;99.90;;;;;;7387369;19;20159;-77
2023/03/07 12:15:24;;;;;;;7.03;3.97;;;7.60;99.90;;;;;;7381682;19;20150;-78
2023/03/07 12:18:17;;;;;;;6.33;4.23;;;7.60;99.90;;;;;;7392586;19;20146;-76
2023/03/07 12:20:51;;;;;;;8.37;3.93;;;7.40;99.90;;;;;;7390527;19;20137;-74
2023/03/07 12:23:26;;;;;;;7.70;3.80;;;7.50;99.90;;;;;;7388080;19;20154;-76
2023/03/07 12:25:56;;;;;;;5.93;4.03;;;7.70;99.90;;;;;;7390447;19;20134;-79
2023/03/07 12:28:26;;;;;;;6.40;3.33;;;7.50;99.90;;;;;;7391717;19;20292;-76
2023/03/07 12:30:57;;;;;;;7.17;3.80;;;7.30;99.90;;;;;;7388387;19;20138;-78
2023/03/07 12:33:41;;;;;;;6.87;3.83;;;7.70;99.90;;;;;;7392579;19;20533;-77
2023/03/07 12:36:15;;;;;;;5.77;3.77;;;8.00;99.90;;;;;;7393734;19;20476;-76
2023/03/07 12:38:53;;;;;;;5.27;3.53;;;8.10;99.90;;;;;;7382608;19;20506;-75
2023/03/07 12:41:42;;;;;;;7.13;4.00;;;8.20;99.90;;;;;;7387228;19;20666;-76
2023/03/07 12:44:17;;;;;;;7.57;3.93;;;8.50;99.90;;;;;;7387074;19;20769;-74
2023/03/07 12:46:55;;;;;;;6.33;3.87;;;8.30;99.60;;;;;;7386004;19;20614;-74
2023/03/07 12:49:40;;;;;;;7.90;4.17;;;8.10;99.90;;;;;;7387057;19;20134;-76
2023/03/07 12:52:20;;;;;;;7.50;3.97;;;8.40;99.90;;;;;;7387785;19;20492;-75
2023/03/07 12:54:57;;;;;;;7.67;3.87;;;8.70;99.60;;;;;;7389628;19;20126;-76
2023/03/07 12:57:36;;;;;;;6.30;3.80;;;8.60;99.40;;;;;;7388980;19;20623;-76
2023/03/07 13:00:07;;;;;;;5.60;3.70;;;8.70;99.20;;;;;;7391089;19;20134;-76
2023/03/07 13:02:42;;;;;;;4.93;3.50;;;8.50;99.20;;;;;;7386608;19;20628;-75
2023/03/07 13:05:18;;;;;;;6.10;3.67;;;8.30;99.70;;;;;;7388393;19;20164;-76
2023/03/07 13:07:45;;;;;;;6.63;4.10;;;8.70;99.60;;;;;;7387740;19;20722;-76
2023/03/07 13:10:16;;;;;;;5.40;3.47;;;8.80;99.70;;;;;;7388572;19;20153;-76
2023/03/07 13:12:42;;;;;;;5.87;3.30;;;8.70;99.70;;;;;;7388232;19;20202;-76